createdAt,value
2017-10-03T00:01:34.082Z,88.57
2017-10-03T00:04:01.770Z,88.21
2017-10-03T00:06:29.483Z,88.23
2017-10-03T00:08:57.334Z,88.01
2017-10-03T00:11:25.140Z,88.62
2017-10-03T00:13:52.879Z,88.21
2017-10-03T00:16:20.578Z,88.00
2017-10-03T00:18:48.299Z,88.22
2017-10-03T00:21:15.990Z,88.09
2017-10-03T00:23:43.700Z,87.68
2017-10-03T00:26:11.435Z,87.52
2017-10-03T00:28:39.106Z,88.33
2017-10-03T00:31:07.040Z,88.33
2017-10-03T00:33:34.807Z,88.26
2017-10-03T00:36:02.581Z,88.14
2017-10-03T00:38:30.332Z,88.10
2017-10-03T00:40:58.059Z,88.70
2017-10-03T00:43:25.782Z,88.85
2017-10-03T00:45:53.462Z,88.92
2017-10-03T00:48:21.773Z,88.76
2017-10-03T00:50:49.529Z,88.65
2017-10-03T00:53:17.208Z,88.56
2017-10-03T00:55:44.982Z,89.14
2017-10-03T00:58:12.742Z,89.15
2017-10-03T01:00:40.428Z,88.57
2017-10-03T01:03:08.248Z,88.19
2017-10-03T01:05:35.982Z,88.38
2017-10-03T01:08:03.679Z,88.55
2017-10-03T01:10:31.433Z,88.65
2017-10-03T01:12:59.151Z,89.03
2017-10-03T01:15:26.926Z,88.83
2017-10-03T01:17:54.654Z,88.56
2017-10-03T01:20:22.458Z,88.68
2017-10-03T01:22:50.162Z,88.89
2017-10-03T01:25:17.841Z,89.50
2017-10-03T01:27:45.588Z,89.62
2017-10-03T01:30:13.249Z,89.50
2017-10-03T01:32:40.984Z,89.34
2017-10-03T01:35:08.725Z,89.53
2017-10-03T01:40:34.309Z,88.68
2017-10-03T01:43:02.015Z,88.65
2017-10-03T01:45:29.767Z,88.76
2017-10-03T01:47:57.440Z,88.51
2017-10-03T01:50:25.180Z,88.85
2017-10-03T01:52:52.986Z,88.34
2017-10-03T01:55:20.844Z,87.81
2017-10-03T01:57:48.623Z,87.95
2017-10-03T02:00:16.353Z,88.26
2017-10-03T02:02:44.031Z,88.10
2017-10-03T02:05:11.884Z,88.36
2017-10-03T02:07:39.558Z,88.18
2017-10-03T02:10:07.299Z,88.29
2017-10-03T02:12:35.060Z,88.31
2017-10-03T02:15:02.793Z,88.34
2017-10-03T02:17:30.603Z,88.13
2017-10-03T02:19:58.312Z,87.91
2017-10-03T02:22:25.999Z,88.45
2017-10-03T02:24:53.725Z,88.62
2017-10-03T02:27:21.443Z,88.77
2017-10-03T02:29:49.184Z,88.57
2017-10-03T02:32:16.885Z,88.62
2017-10-03T02:34:44.605Z,88.65
2017-10-03T02:37:12.368Z,88.86
2017-10-03T02:39:40.075Z,88.68
2017-10-03T02:42:07.752Z,88.55
2017-10-03T02:44:35.488Z,88.53
2017-10-03T02:47:03.250Z,89.42
2017-10-03T02:49:31.013Z,89.25
2017-10-03T02:51:58.876Z,90.29
2017-10-03T02:54:26.564Z,90.23
2017-10-03T02:56:54.263Z,89.66
2017-10-03T02:59:22.058Z,90.09
2017-10-03T03:01:49.732Z,89.64
2017-10-03T03:04:17.471Z,89.27
2017-10-03T03:06:45.144Z,88.98
2017-10-03T03:09:12.877Z,89.24
2017-10-03T03:11:40.647Z,89.62
2017-10-03T03:14:08.335Z,89.33
2017-10-03T03:16:36.080Z,89.88
2017-10-03T03:19:03.837Z,90.91
2017-10-03T03:21:31.544Z,90.97
2017-10-03T03:23:59.335Z,90.79
2017-10-03T03:26:27.025Z,90.46
2017-10-03T03:28:54.712Z,90.61
2017-10-03T03:31:22.441Z,90.51
2017-10-03T03:33:50.155Z,90.06
2017-10-03T03:36:18.026Z,90.36
2017-10-03T03:38:45.716Z,90.37
2017-10-03T03:41:13.508Z,90.16
2017-10-03T03:43:41.279Z,89.91
2017-10-03T03:46:09.096Z,89.59
2017-10-03T03:48:36.848Z,89.89
2017-10-03T03:51:04.638Z,89.59
2017-10-03T03:53:32.429Z,89.60
2017-10-03T03:56:00.211Z,89.61
2017-10-03T03:58:28.741Z,89.83
2017-10-03T04:00:56.463Z,89.84
2017-10-03T04:03:24.157Z,89.71
2017-10-03T04:05:51.943Z,89.89
2017-10-03T04:08:19.688Z,89.89
2017-10-03T04:10:47.408Z,89.95
2017-10-03T04:13:15.095Z,90.71
2017-10-03T04:15:42.851Z,89.92
2017-10-03T04:18:10.656Z,89.75
2017-10-03T04:20:38.432Z,89.81
2017-10-03T04:23:06.204Z,89.63
2017-10-03T04:25:34.075Z,89.79
2017-10-03T04:28:01.757Z,90.63
2017-10-03T04:30:29.423Z,90.77
2017-10-03T04:32:57.176Z,90.81
2017-10-03T04:35:24.863Z,90.62
2017-10-03T04:37:52.626Z,90.65
2017-10-03T04:40:20.335Z,90.84
2017-10-03T04:42:47.991Z,90.96
2017-10-03T04:45:15.749Z,90.73
2017-10-03T04:47:43.701Z,90.34
2017-10-03T04:50:11.457Z,90.02
2017-10-03T04:52:39.159Z,89.95
2017-10-03T04:55:06.937Z,89.99
2017-10-03T04:57:34.652Z,89.85
2017-10-03T05:00:02.371Z,90.30
2017-10-03T05:02:30.088Z,90.11
2017-10-03T05:04:57.803Z,90.24
2017-10-03T05:07:25.495Z,90.44
2017-10-03T05:09:53.224Z,90.54
2017-10-03T05:12:20.909Z,91.52
2017-10-03T05:14:48.616Z,92.01
2017-10-03T05:17:16.532Z,91.29
2017-10-03T05:19:44.198Z,90.99
2017-10-03T05:22:11.943Z,90.84
2017-10-03T05:24:39.665Z,91.02
2017-10-03T05:27:07.414Z,90.62
2017-10-03T05:29:35.091Z,90.16
2017-10-03T05:32:02.832Z,90.19
2017-10-03T05:34:30.577Z,90.15
2017-10-03T05:36:58.347Z,90.04
2017-10-03T05:39:26.095Z,90.37
2017-10-03T05:41:53.845Z,90.35
2017-10-03T05:44:21.609Z,90.62
2017-10-03T05:46:49.359Z,90.45
2017-10-03T05:49:18.083Z,90.83
2017-10-03T05:51:46.179Z,90.61
2017-10-03T05:54:13.888Z,90.74
2017-10-03T05:56:41.610Z,91.00
2017-10-03T05:59:09.344Z,90.42
2017-10-03T06:01:37.174Z,90.38
2017-10-03T06:04:04.950Z,90.61
2017-10-03T06:06:32.733Z,90.72
2017-10-03T06:09:00.508Z,90.76
2017-10-03T06:11:28.262Z,90.66
2017-10-03T06:13:56.028Z,90.78
2017-10-03T06:16:23.884Z,90.85
2017-10-03T06:18:51.612Z,90.29
2017-10-03T06:21:19.363Z,90.15
2017-10-03T06:23:47.136Z,90.06
2017-10-03T06:26:15.053Z,90.55
2017-10-03T06:28:42.786Z,90.53
2017-10-03T06:31:10.545Z,90.73
2017-10-03T06:33:38.350Z,90.68
2017-10-03T06:36:06.063Z,90.65
2017-10-03T06:38:33.764Z,91.02
2017-10-03T06:41:01.560Z,90.56
2017-10-03T06:43:29.373Z,90.41
2017-10-03T06:45:57.095Z,90.80
2017-10-03T06:48:24.880Z,90.08
2017-10-03T06:50:52.608Z,89.73
2017-10-03T06:53:20.342Z,89.25
2017-10-03T06:55:48.101Z,89.29
2017-10-03T06:58:15.880Z,89.34
2017-10-03T07:00:43.585Z,87.96
2017-10-03T07:03:11.329Z,87.95
2017-10-03T07:05:39.099Z,88.34
2017-10-03T07:08:06.839Z,88.47
2017-10-03T07:10:35.057Z,87.50
2017-10-03T07:13:03.299Z,87.68
2017-10-03T07:15:31.029Z,87.39
2017-10-03T07:17:58.849Z,88.31
2017-10-03T07:20:26.597Z,88.53
2017-10-03T07:22:54.298Z,88.58
2017-10-03T07:25:22.034Z,88.39
2017-10-03T07:27:49.836Z,88.25
2017-10-03T07:30:17.620Z,88.49
2017-10-03T07:32:45.367Z,88.93
2017-10-03T07:35:13.171Z,88.84
2017-10-03T07:37:40.955Z,89.02
2017-10-03T07:40:09.231Z,87.94
2017-10-03T07:42:37.069Z,88.11
2017-10-03T07:45:04.861Z,89.16
2017-10-03T07:47:32.589Z,88.72
2017-10-03T07:50:00.397Z,88.60
2017-10-03T07:52:28.110Z,88.53
2017-10-03T07:54:55.940Z,88.70
2017-10-03T07:57:24.195Z,88.31
2017-10-03T07:59:51.897Z,88.08
2017-10-03T08:02:19.760Z,87.42
2017-10-03T08:04:47.821Z,87.32
2017-10-03T08:07:15.602Z,87.35
2017-10-03T08:09:43.343Z,87.32
2017-10-03T08:12:11.082Z,87.59
2017-10-03T08:14:38.836Z,86.20
2017-10-03T08:17:07.472Z,87.10
2017-10-03T08:19:35.258Z,88.32
2017-10-03T08:22:03.038Z,88.20
2017-10-03T08:24:30.949Z,87.88
2017-10-03T08:26:58.758Z,85.79
2017-10-03T08:29:27.172Z,86.13
2017-10-03T08:31:55.842Z,85.48
2017-10-03T08:34:23.637Z,85.33
2017-10-03T08:36:51.605Z,85.80
2017-10-03T08:39:19.627Z,85.73
2017-10-03T08:41:47.434Z,86.68
2017-10-03T08:44:15.246Z,86.36
2017-10-03T08:46:43.050Z,86.78
2017-10-03T08:49:10.905Z,86.49
2017-10-03T08:51:38.864Z,86.22
2017-10-03T08:54:06.717Z,86.35
2017-10-03T08:56:34.518Z,86.50
2017-10-03T08:59:02.361Z,86.02
2017-10-03T09:01:30.066Z,85.81
2017-10-03T09:03:57.758Z,85.03
2017-10-03T09:06:25.530Z,85.33
2017-10-03T09:08:53.328Z,81.72
2017-10-03T09:11:21.233Z,83.54
2017-10-03T09:13:49.124Z,84.13
2017-10-03T09:16:16.870Z,83.84
2017-10-03T09:18:45.451Z,83.44
2017-10-03T09:21:13.324Z,83.91
2017-10-03T09:23:41.163Z,83.42
2017-10-03T09:26:08.896Z,83.74
2017-10-03T09:28:36.636Z,84.50
2017-10-03T09:31:04.427Z,86.52
2017-10-03T09:33:32.197Z,86.15
2017-10-03T09:36:00.092Z,86.89
2017-10-03T09:38:27.779Z,87.12
2017-10-03T09:40:55.525Z,87.37
2017-10-03T09:43:23.327Z,86.62
2017-10-03T09:45:51.079Z,86.63
2017-10-03T09:48:18.779Z,87.33
2017-10-03T09:50:46.678Z,88.22
2017-10-03T09:53:14.771Z,87.75
2017-10-03T09:55:42.527Z,87.75
2017-10-03T09:58:11.199Z,88.59
2017-10-03T10:00:38.958Z,87.86
2017-10-03T10:03:06.707Z,88.26
2017-10-03T10:05:34.423Z,89.09
2017-10-03T10:08:02.228Z,87.64
2017-10-03T10:10:30.677Z,87.65
2017-10-03T10:12:58.376Z,88.37
2017-10-03T10:15:26.567Z,90.13
2017-10-03T10:17:54.306Z,87.26
2017-10-03T10:20:22.083Z,88.33
2017-10-03T10:22:50.423Z,86.30
2017-10-03T10:25:18.181Z,87.33
2017-10-03T10:27:46.926Z,87.78
2017-10-03T10:30:14.711Z,86.02
2017-10-03T10:32:43.295Z,86.09
2017-10-03T10:35:11.077Z,84.94
2017-10-03T10:37:38.829Z,87.46
2017-10-03T10:40:06.568Z,87.19
2017-10-03T10:42:34.293Z,86.90
2017-10-03T10:45:02.060Z,88.24
2017-10-03T10:47:29.782Z,88.36
2017-10-03T10:49:57.543Z,87.75
2017-10-03T10:52:25.216Z,88.34
2017-10-03T10:54:52.988Z,88.83
2017-10-03T10:57:20.879Z,89.66
2017-10-03T10:59:48.729Z,88.77
2017-10-03T11:02:16.502Z,88.99
2017-10-03T11:04:44.195Z,89.57
2017-10-03T11:07:11.998Z,89.54
2017-10-03T11:09:39.661Z,89.03
2017-10-03T11:12:07.381Z,89.35
2017-10-03T11:14:35.294Z,89.76
2017-10-03T11:17:03.179Z,89.96
2017-10-03T11:19:30.955Z,90.74
2017-10-03T11:21:58.689Z,90.27
2017-10-03T11:24:44.874Z,90.04
2017-10-03T11:27:12.677Z,90.29
2017-10-03T11:29:40.482Z,89.92
2017-10-03T11:32:08.204Z,89.76
2017-10-03T11:34:35.995Z,86.76
2017-10-03T11:37:03.788Z,84.40
2017-10-03T11:39:31.495Z,82.25
2017-10-03T11:41:59.302Z,81.67
2017-10-03T11:44:26.996Z,81.90
2017-10-03T11:46:54.673Z,81.60
2017-10-03T11:49:22.420Z,81.54
2017-10-03T11:51:50.119Z,80.83
2017-10-03T11:54:17.857Z,81.57
2017-10-03T11:56:45.534Z,82.42
2017-10-03T11:59:13.268Z,81.93
2017-10-03T12:01:41.112Z,82.19
2017-10-03T12:04:09.004Z,83.29
2017-10-03T12:06:36.689Z,82.67
2017-10-03T12:09:04.597Z,82.60
2017-10-03T12:11:32.380Z,81.89
2017-10-03T12:14:00.090Z,81.64
2017-10-03T12:16:27.964Z,81.82
2017-10-03T12:18:55.681Z,80.23
2017-10-03T12:21:23.673Z,80.09
2017-10-03T12:23:52.280Z,79.27
2017-10-03T12:26:19.985Z,81.76
2017-10-03T12:28:47.764Z,78.47
2017-10-03T12:31:15.457Z,81.05
2017-10-03T12:33:43.212Z,78.89
2017-10-03T12:36:10.997Z,81.99
2017-10-03T12:38:38.851Z,80.86
2017-10-03T12:41:06.734Z,75.18
2017-10-03T12:43:34.781Z,78.02
2017-10-03T12:46:02.855Z,78.93
2017-10-03T12:48:30.663Z,72.92
2017-10-03T12:50:59.332Z,76.95
2017-10-03T12:53:27.427Z,75.68
2017-10-03T12:55:55.164Z,70.99
2017-10-03T12:58:23.021Z,73.21
2017-10-03T13:00:50.812Z,74.53
2017-10-03T13:03:18.675Z,75.91
2017-10-03T13:05:46.517Z,75.51
2017-10-03T13:08:16.116Z,76.78
2017-10-03T13:10:44.325Z,78.50
2017-10-03T13:13:12.650Z,78.10
2017-10-03T13:15:40.491Z,76.87
2017-10-03T13:18:08.264Z,76.63
2017-10-03T13:20:36.401Z,78.49
2017-10-03T13:23:04.870Z,81.71
2017-10-03T13:25:32.743Z,81.98
2017-10-03T13:28:00.701Z,83.00
2017-10-03T13:30:28.746Z,84.46
2017-10-03T13:32:56.510Z,77.40
2017-10-03T13:35:24.368Z,79.71
2017-10-03T13:37:52.238Z,76.80
2017-10-03T13:40:21.943Z,75.33
2017-10-03T13:42:49.763Z,76.13
2017-10-03T13:45:19.836Z,75.13
2017-10-03T13:47:47.779Z,74.82
2017-10-03T13:50:15.949Z,77.76
2017-10-03T13:52:43.927Z,81.05
2017-10-03T13:55:12.457Z,76.94
2017-10-03T13:57:40.215Z,74.87
2017-10-03T14:00:08.047Z,73.11
2017-10-03T14:02:37.816Z,73.41
2017-10-03T14:05:05.645Z,76.24
2017-10-03T14:07:33.503Z,79.46
2017-10-03T14:10:01.233Z,75.72
2017-10-03T14:12:29.288Z,72.07
2017-10-03T14:14:57.169Z,71.25
2017-10-03T14:17:25.737Z,73.92
2017-10-03T14:19:54.252Z,71.86
2017-10-03T14:22:22.062Z,75.54
2017-10-03T14:24:49.883Z,73.24
2017-10-03T14:27:17.691Z,73.19
2017-10-03T14:29:45.542Z,73.62
2017-10-03T14:32:14.240Z,74.88
2017-10-03T14:34:42.045Z,79.08
2017-10-03T14:37:09.747Z,71.76
2017-10-03T14:39:37.625Z,75.26
2017-10-03T14:42:05.482Z,74.42
2017-10-03T14:44:33.359Z,74.29
2017-10-03T14:47:01.105Z,68.56
2017-10-03T14:49:29.062Z,70.68
2017-10-03T14:51:56.983Z,70.09
2017-10-03T14:54:24.787Z,68.97
2017-10-03T14:56:52.571Z,70.87
2017-10-03T14:59:20.360Z,69.68
2017-10-03T15:01:49.417Z,73.22
2017-10-03T15:04:17.203Z,76.41
2017-10-03T15:06:46.327Z,77.63
2017-10-03T15:09:14.834Z,78.06
2017-10-03T15:11:42.641Z,79.38
2017-10-03T15:14:10.657Z,78.88
2017-10-03T15:16:38.415Z,77.41
2017-10-03T15:19:06.471Z,76.23
2017-10-03T15:21:34.208Z,78.38
2017-10-03T15:24:01.934Z,80.18
2017-10-03T15:26:29.765Z,80.44
2017-10-03T15:28:58.214Z,80.32
2017-10-03T15:31:26.057Z,80.14
2017-10-03T15:33:53.756Z,80.00
2017-10-03T15:36:21.554Z,80.49
2017-10-03T15:38:49.277Z,80.93
2017-10-03T15:41:17.030Z,82.14
2017-10-03T15:43:44.807Z,81.58
2017-10-03T15:46:12.529Z,80.65
2017-10-03T15:48:40.277Z,81.19
2017-10-03T15:51:08.150Z,81.68
2017-10-03T15:53:35.836Z,82.22
2017-10-03T15:56:03.605Z,80.39
2017-10-03T15:58:31.346Z,80.75
2017-10-03T16:00:59.237Z,81.74
2017-10-03T16:03:27.875Z,81.29
2017-10-03T16:05:55.639Z,80.72
2017-10-03T16:08:24.121Z,81.25
2017-10-03T16:10:51.832Z,81.75
2017-10-03T16:13:19.732Z,81.41
2017-10-03T16:15:47.424Z,82.15
2017-10-03T16:18:15.125Z,81.71
2017-10-03T16:20:42.863Z,81.30
2017-10-03T16:23:10.794Z,83.03
2017-10-03T16:25:38.542Z,83.12
2017-10-03T16:28:06.324Z,83.62
2017-10-03T16:30:34.088Z,82.51
2017-10-03T16:33:01.813Z,82.37
2017-10-03T16:35:29.593Z,81.93
2017-10-03T16:37:57.278Z,82.02
2017-10-03T16:40:25.141Z,81.92
2017-10-03T16:42:52.832Z,81.53
2017-10-03T16:45:20.531Z,81.72
2017-10-03T16:47:48.276Z,81.75
2017-10-03T16:50:15.960Z,81.68
2017-10-03T16:52:43.723Z,82.86
2017-10-03T16:55:11.501Z,83.42
2017-10-03T16:57:39.203Z,83.88
2017-10-03T17:00:07.127Z,83.17
2017-10-03T17:02:34.905Z,83.56
2017-10-03T17:05:02.666Z,84.37
2017-10-03T17:07:30.376Z,84.22
2017-10-03T17:09:58.145Z,84.87
2017-10-03T17:12:25.991Z,85.57
2017-10-03T17:14:53.767Z,84.46
2017-10-03T17:17:21.654Z,85.24
2017-10-03T17:19:49.422Z,85.79
2017-10-03T17:22:17.189Z,86.21
2017-10-03T17:24:45.081Z,86.08
2017-10-03T17:27:12.914Z,85.93
2017-10-03T17:29:40.687Z,86.65
2017-10-03T17:32:08.505Z,86.46
2017-10-03T17:34:37.599Z,86.66
2017-10-03T17:37:05.380Z,86.16
2017-10-03T17:39:33.960Z,86.16
2017-10-03T17:42:01.781Z,86.36
2017-10-03T17:44:29.512Z,86.95
2017-10-03T17:46:57.207Z,87.11
2017-10-03T17:49:24.997Z,86.87
2017-10-03T17:51:52.832Z,86.68
2017-10-03T17:54:22.080Z,86.65
2017-10-03T17:56:49.921Z,86.71
2017-10-03T17:59:17.704Z,86.52
2017-10-03T18:01:45.508Z,86.28
2017-10-03T18:04:14.878Z,86.64
2017-10-03T18:06:44.017Z,86.91
2017-10-03T18:09:11.965Z,87.07
2017-10-03T18:11:39.851Z,86.42
2017-10-03T18:14:07.702Z,85.55
2017-10-03T18:16:35.610Z,85.35
2017-10-03T18:19:03.555Z,86.38
2017-10-03T18:21:31.569Z,86.25
2017-10-03T18:23:59.489Z,86.44
2017-10-03T18:26:28.136Z,86.63
2017-10-03T18:28:56.302Z,87.22
2017-10-03T18:31:24.681Z,86.64
2017-10-03T18:33:54.296Z,86.69
2017-10-03T18:36:22.185Z,86.24
2017-10-03T18:38:51.567Z,86.69
2017-10-03T18:41:20.959Z,87.04
2017-10-03T18:43:48.818Z,87.13
2017-10-03T18:46:16.681Z,87.27
2017-10-03T18:48:44.451Z,87.42
2017-10-03T18:51:13.081Z,87.54
2017-10-03T18:53:40.946Z,87.56
2017-10-03T18:56:08.718Z,87.63
2017-10-03T18:58:36.459Z,87.71
2017-10-03T19:01:04.319Z,87.35
2017-10-03T19:03:32.783Z,87.35
2017-10-03T19:06:00.611Z,88.50
2017-10-03T19:08:29.543Z,88.17
2017-10-03T19:10:59.460Z,88.05
2017-10-03T19:13:28.038Z,89.38
2017-10-03T19:15:56.275Z,88.83
2017-10-03T19:18:24.192Z,88.66
2017-10-03T19:20:52.550Z,88.29
2017-10-03T19:23:20.418Z,88.17
2017-10-03T19:25:48.462Z,87.68
2017-10-03T19:28:16.634Z,88.17
2017-10-03T19:30:44.714Z,87.87
2017-10-03T19:33:12.718Z,88.24
2017-10-03T19:35:40.738Z,88.01
2017-10-03T19:38:09.982Z,87.95
2017-10-03T19:40:39.224Z,88.83
2017-10-03T19:43:07.919Z,89.91
2017-10-03T19:45:37.040Z,90.21
2017-10-03T19:48:06.122Z,89.32
2017-10-03T19:50:33.961Z,90.33
2017-10-03T19:53:01.787Z,89.95
2017-10-03T19:55:29.628Z,89.54
2017-10-03T19:57:57.392Z,89.29
2017-10-03T20:00:25.854Z,89.42
2017-10-03T20:02:54.740Z,89.57
2017-10-03T20:05:22.501Z,90.07
2017-10-03T20:07:50.373Z,89.51
2017-10-03T20:10:19.217Z,89.28
2017-10-03T20:12:47.938Z,89.05
2017-10-03T20:15:15.705Z,89.68
2017-10-03T20:17:43.408Z,89.91
2017-10-03T20:20:11.170Z,89.65
2017-10-03T20:22:39.129Z,89.58
2017-10-03T20:25:06.914Z,89.25
2017-10-03T20:27:34.680Z,89.38
2017-10-03T20:30:03.680Z,89.39
2017-10-03T20:32:31.377Z,89.89
2017-10-03T20:34:59.131Z,89.33
2017-10-03T20:37:26.830Z,89.12
2017-10-03T20:39:54.605Z,89.57
2017-10-03T20:42:22.384Z,89.03
2017-10-03T20:44:50.110Z,89.11
2017-10-03T20:47:18.347Z,90.21
2017-10-03T20:49:47.198Z,90.21
2017-10-03T20:52:14.918Z,86.73
2017-10-03T20:54:42.625Z,87.53
2017-10-03T20:57:10.394Z,87.92
2017-10-03T20:59:38.267Z,88.02
2017-10-03T21:02:06.039Z,87.80
2017-10-03T21:04:33.807Z,88.29
2017-10-03T21:07:02.127Z,88.40
2017-10-03T21:09:30.085Z,88.05
2017-10-03T21:11:57.910Z,88.16
2017-10-03T21:14:26.509Z,87.82
2017-10-03T21:16:54.239Z,87.75
2017-10-03T21:19:21.981Z,87.56
2017-10-03T21:21:49.670Z,88.34
2017-10-03T21:24:17.421Z,88.31
2017-10-03T21:26:45.124Z,88.75
2017-10-03T21:29:12.911Z,89.38
2017-10-03T21:31:41.566Z,88.93
2017-10-03T21:34:09.282Z,88.32
2017-10-03T21:36:37.046Z,87.99
2017-10-03T21:39:04.851Z,87.48
2017-10-03T21:41:32.732Z,87.40
2017-10-03T21:44:01.454Z,86.89
2017-10-03T21:46:29.599Z,87.81
2017-10-03T21:48:57.827Z,86.00
2017-10-03T21:51:25.792Z,87.09
2017-10-03T21:53:53.914Z,87.54
2017-10-03T21:56:21.871Z,87.81
2017-10-03T21:58:49.685Z,87.67
2017-10-03T22:01:17.413Z,88.01
2017-10-03T22:03:45.125Z,88.43
2017-10-03T22:06:12.867Z,84.13
2017-10-03T22:08:40.618Z,83.87
2017-10-03T22:11:08.316Z,85.95
2017-10-03T22:13:36.035Z,85.62
2017-10-03T22:16:03.778Z,82.51
2017-10-03T22:18:31.513Z,85.15
2017-10-03T22:20:59.217Z,86.05
2017-10-03T22:23:27.088Z,85.26
2017-10-03T22:25:54.795Z,85.84
2017-10-03T22:28:22.476Z,86.41
2017-10-03T22:30:50.232Z,87.06
2017-10-03T22:33:17.953Z,87.30
2017-10-03T22:35:45.736Z,86.34
2017-10-03T22:38:13.455Z,87.23
2017-10-03T22:40:41.204Z,87.49
2017-10-03T22:43:08.898Z,86.78
2017-10-03T22:45:36.603Z,86.56
2017-10-03T22:48:04.308Z,86.80
2017-10-03T22:50:32.059Z,86.38
2017-10-03T22:52:59.746Z,87.15
2017-10-03T22:55:27.501Z,86.70
2017-10-03T22:57:55.226Z,86.37
2017-10-03T23:00:22.904Z,86.51
2017-10-03T23:02:50.620Z,86.31
2017-10-03T23:05:18.301Z,86.94
2017-10-03T23:07:46.016Z,87.31
2017-10-03T23:10:13.716Z,87.73
2017-10-03T23:12:41.462Z,87.71
2017-10-03T23:15:09.220Z,86.01
2017-10-03T23:17:36.964Z,86.45
2017-10-03T23:20:04.646Z,85.84
2017-10-03T23:22:32.326Z,86.83
2017-10-03T23:25:00.141Z,86.28
2017-10-03T23:27:27.823Z,85.42
2017-10-03T23:29:55.509Z,85.56
2017-10-03T23:32:23.221Z,84.90
2017-10-03T23:34:50.925Z,85.79
2017-10-03T23:37:18.682Z,85.29
2017-10-03T23:39:46.972Z,85.18
2017-10-03T23:42:14.718Z,85.44
2017-10-03T23:44:42.384Z,86.33
2017-10-03T23:47:10.200Z,86.95
2017-10-03T23:49:37.875Z,86.37
2017-10-03T23:52:05.614Z,86.11
2017-10-03T23:54:33.365Z,86.70
2017-10-03T23:57:01.088Z,86.88
2017-10-03T23:59:28.756Z,86.83
